createdAt,value
2023-03-11T00:00:28.153Z,1.25
2023-03-11T00:02:59.387Z,1.30
2023-03-11T00:05:38.958Z,1.40
2023-03-11T00:08:08.093Z,1.20
2023-03-11T00:10:40.182Z,1.10
2023-03-11T00:13:10.314Z,1.23
2023-03-11T00:15:41.620Z,1.10
2023-03-11T00:18:09.381Z,1.00
2023-03-11T00:20:42.218Z,0.98
2023-03-11T00:23:11.664Z,1.00
2023-03-11T00:25:44.261Z,1.00
2023-03-11T00:28:15.360Z,1.10
2023-03-11T00:30:44.313Z,1.15
2023-03-11T00:33:14.833Z,1.30
2023-03-11T00:35:43.311Z,1.10
2023-03-11T00:38:15.719Z,1.00
2023-03-11T00:40:45.870Z,1.00
2023-03-11T00:43:15.288Z,0.80
2023-03-11T00:45:43.132Z,0.90
2023-03-11T00:48:12.598Z,1.00
2023-03-11T00:50:41.001Z,1.05
2023-03-11T00:53:08.846Z,0.95
2023-03-11T00:55:36.739Z,1.40
2023-03-11T00:58:10.057Z,1.10
2023-03-11T01:00:49.654Z,1.10
2023-03-11T01:03:17.241Z,0.80
2023-03-11T01:05:46.146Z,1.58
2023-03-11T01:08:13.746Z,0.95
2023-03-11T01:10:41.309Z,1.30
2023-03-11T01:13:08.808Z,1.00
2023-03-11T01:15:47.556Z,1.10
2023-03-11T01:18:16.105Z,1.02
2023-03-11T01:20:44.087Z,0.90
2023-03-11T01:23:12.979Z,1.20
2023-03-11T01:25:40.546Z,1.05
2023-03-11T01:28:08.677Z,1.30
2023-03-11T01:30:38.654Z,0.70
2023-03-11T01:33:07.666Z,1.00
2023-03-11T01:35:35.746Z,0.90
2023-03-11T01:38:03.410Z,0.85
2023-03-11T01:40:35.970Z,0.85
2023-03-11T01:43:28.282Z,1.00
2023-03-11T01:45:56.349Z,1.05
2023-03-11T01:48:26.691Z,1.20
2023-03-11T01:50:57.484Z,1.00
2023-03-11T01:53:27.650Z,1.17
2023-03-11T01:55:55.893Z,1.05
2023-03-11T01:58:34.738Z,2.75
2023-03-11T02:01:03.462Z,2.10
2023-03-11T02:03:34.793Z,2.60
2023-03-11T02:06:06.279Z,1.80
2023-03-11T02:08:37.065Z,2.95
2023-03-11T02:11:10.193Z,1.83
2023-03-11T02:13:41.067Z,1.10
2023-03-11T02:16:09.126Z,0.90
2023-03-11T02:18:37.571Z,0.93
2023-03-11T02:21:22.722Z,1.10
2023-03-11T02:24:15.278Z,0.70
2023-03-11T02:26:55.024Z,0.85
2023-03-11T02:29:25.430Z,0.90
2023-03-11T02:31:58.705Z,1.02
2023-03-11T02:34:30.493Z,0.90
2023-03-11T02:36:59.242Z,1.20
2023-03-11T02:39:32.471Z,1.00
2023-03-11T02:42:04.890Z,1.25
2023-03-11T02:44:33.552Z,1.10
2023-03-11T02:47:04.284Z,0.85
2023-03-11T02:49:32.966Z,1.10
2023-03-11T02:52:00.629Z,1.20
2023-03-11T02:54:29.838Z,1.20
2023-03-11T02:56:58.406Z,1.30
2023-03-11T02:59:28.018Z,1.00
2023-03-11T03:01:56.453Z,1.02
2023-03-11T03:04:24.180Z,1.00
2023-03-11T03:06:51.797Z,1.00
2023-03-11T03:09:26.146Z,1.17
2023-03-11T03:11:53.690Z,1.10
2023-03-11T03:14:21.346Z,1.30
2023-03-11T03:16:49.808Z,1.30
2023-03-11T03:19:19.565Z,1.40
2023-03-11T03:21:49.533Z,1.40
2023-03-11T03:24:17.576Z,1.20
2023-03-11T03:26:45.231Z,1.40
2023-03-11T03:29:13.000Z,1.17
2023-03-11T03:31:45.398Z,1.30
2023-03-11T03:34:13.562Z,1.25
2023-03-11T03:36:41.315Z,1.20
2023-03-11T03:39:11.437Z,1.33
2023-03-11T03:41:38.957Z,1.40
2023-03-11T03:44:08.445Z,1.27
2023-03-11T03:46:38.539Z,1.33
2023-03-11T03:49:08.147Z,1.27
2023-03-11T03:51:38.256Z,1.30
2023-03-11T03:54:13.283Z,1.38
2023-03-11T03:56:40.956Z,1.30
2023-03-11T03:59:08.707Z,1.60
2023-03-11T04:01:41.455Z,1.50
2023-03-11T04:04:11.860Z,1.30
2023-03-11T04:06:40.760Z,1.30
2023-03-11T04:09:12.287Z,1.17
2023-03-11T04:11:39.904Z,1.25
2023-03-11T04:14:09.885Z,1.33
2023-03-11T04:16:43.448Z,1.33
2023-03-11T04:19:12.925Z,1.20
2023-03-11T04:21:40.796Z,1.45
2023-03-11T04:24:11.808Z,1.05
2023-03-11T04:26:40.424Z,0.93
2023-03-11T04:29:12.417Z,1.15
2023-03-11T04:31:43.482Z,1.23
2023-03-11T04:34:11.015Z,1.20
2023-03-11T04:36:39.733Z,1.02
2023-03-11T04:39:08.443Z,1.00
2023-03-11T04:41:41.403Z,1.15
2023-03-11T04:44:11.080Z,1.10
2023-03-11T04:46:39.013Z,1.13
2023-03-11T04:49:09.080Z,1.38
2023-03-11T04:51:37.060Z,1.63
2023-03-11T04:54:05.010Z,1.23
2023-03-11T04:56:32.829Z,1.80
2023-03-11T04:59:03.748Z,1.50
2023-03-11T05:01:33.216Z,1.20
2023-03-11T05:04:06.003Z,1.20
2023-03-11T05:06:33.861Z,1.33
2023-03-11T05:09:04.816Z,1.45
2023-03-11T05:11:35.766Z,1.48
2023-03-11T05:14:03.893Z,1.35
2023-03-11T05:16:31.430Z,1.30
2023-03-11T05:18:58.938Z,1.27
2023-03-11T05:21:26.415Z,1.25
2023-03-11T05:23:54.077Z,1.30
2023-03-11T05:26:21.562Z,1.15
2023-03-11T05:28:48.983Z,1.40
2023-03-11T05:31:16.585Z,1.55
2023-03-11T05:33:44.287Z,1.50
2023-03-11T05:36:13.834Z,1.60
2023-03-11T05:38:44.090Z,1.30
2023-03-11T05:41:12.040Z,1.48
2023-03-11T05:43:41.886Z,1.60
2023-03-11T05:46:10.417Z,1.40
2023-03-11T05:48:38.947Z,1.50
2023-03-11T05:51:11.679Z,1.50
2023-03-11T05:53:49.647Z,1.80
2023-03-11T05:56:23.735Z,1.90
2023-03-11T05:58:52.223Z,1.42
2023-03-11T06:01:20.886Z,1.40
2023-03-11T06:03:49.341Z,1.90
2023-03-11T06:06:17.836Z,1.90
2023-03-11T06:08:49.857Z,1.77
2023-03-11T06:11:19.046Z,1.73
2023-03-11T06:13:47.174Z,2.03
2023-03-11T06:16:15.115Z,1.90
2023-03-11T06:18:42.915Z,2.00
2023-03-11T06:21:17.324Z,2.63
2023-03-11T06:23:45.017Z,2.50
2023-03-11T06:26:14.847Z,2.53
2023-03-11T06:28:45.277Z,2.55
2023-03-11T06:31:33.290Z,3.10
2023-03-11T06:34:06.966Z,2.70
2023-03-11T06:36:34.747Z,2.88
2023-03-11T06:39:02.284Z,3.00
2023-03-11T06:41:30.022Z,2.72
2023-03-11T06:43:59.756Z,2.65
2023-03-11T06:46:28.532Z,2.78
2023-03-11T06:48:57.667Z,2.70
2023-03-11T06:51:25.482Z,2.70
2023-03-11T06:53:54.089Z,2.50
2023-03-11T06:56:23.838Z,2.92
2023-03-11T06:58:59.401Z,2.90
2023-03-11T07:01:31.296Z,2.83
2023-03-11T07:04:00.823Z,2.97
2023-03-11T07:06:34.260Z,3.00
2023-03-11T07:09:13.597Z,2.97
2023-03-11T07:11:43.902Z,3.10
2023-03-11T07:14:16.528Z,2.67
2023-03-11T07:16:47.980Z,2.15
2023-03-11T07:19:26.838Z,3.28
2023-03-11T07:21:57.995Z,2.75
2023-03-11T07:24:25.446Z,2.90
2023-03-11T07:26:52.791Z,2.90
2023-03-11T07:29:20.981Z,3.15
2023-03-11T07:31:49.311Z,2.88
2023-03-11T07:34:19.698Z,3.20
2023-03-11T07:36:47.233Z,3.20
2023-03-11T07:39:17.762Z,3.55
2023-03-11T07:41:45.601Z,3.63
2023-03-11T07:44:16.142Z,3.35
2023-03-11T07:46:44.531Z,3.90
2023-03-11T07:49:12.323Z,4.35
2023-03-11T07:51:44.022Z,4.15
2023-03-11T07:54:12.766Z,4.15
2023-03-11T07:56:40.392Z,4.13
2023-03-11T07:59:08.053Z,3.45
2023-03-11T08:01:41.256Z,3.45
2023-03-11T08:04:14.355Z,3.60
2023-03-11T08:06:44.780Z,3.33
2023-03-11T08:09:13.625Z,4.20
2023-03-11T08:11:41.723Z,3.47
2023-03-11T08:14:09.719Z,3.88
2023-03-11T08:16:40.164Z,3.90
2023-03-11T08:19:07.797Z,4.05
2023-03-11T08:21:35.279Z,4.13
2023-03-11T08:24:04.524Z,4.50
2023-03-11T08:26:36.356Z,4.45
2023-03-11T08:29:04.406Z,4.60
2023-03-11T08:31:34.009Z,4.68
2023-03-11T08:34:04.846Z,4.32
2023-03-11T08:36:33.094Z,5.13
2023-03-11T08:39:00.665Z,4.95
2023-03-11T08:41:28.685Z,4.53
2023-03-11T08:43:56.345Z,4.63
2023-03-11T08:46:27.472Z,5.63
2023-03-11T08:48:56.986Z,7.00
2023-03-11T08:51:26.367Z,7.47
2023-03-11T08:53:54.257Z,7.78
2023-03-11T08:56:23.935Z,7.72
2023-03-11T08:58:51.880Z,7.53
2023-03-11T09:01:20.346Z,7.75
2023-03-11T09:03:48.106Z,8.00
2023-03-11T09:06:17.532Z,8.07
2023-03-11T09:08:48.920Z,7.95
2023-03-11T09:11:17.824Z,8.25
2023-03-11T09:13:45.494Z,7.90
2023-03-11T09:16:14.948Z,9.20
2023-03-11T09:18:42.770Z,8.63
2023-03-11T09:21:11.448Z,9.70
2023-03-11T09:23:40.309Z,8.80
2023-03-11T09:26:08.561Z,10.18
2023-03-11T09:28:36.026Z,10.25
2023-03-11T09:31:03.591Z,9.95
2023-03-11T09:33:31.060Z,10.50
2023-03-11T09:36:02.033Z,11.02
2023-03-11T09:38:32.723Z,10.73
2023-03-11T09:41:10.680Z,10.85
2023-03-11T09:43:56.412Z,10.60
2023-03-11T09:46:45.227Z,11.55
2023-03-11T09:49:40.771Z,11.75
2023-03-11T09:52:16.138Z,11.85
2023-03-11T09:54:54.891Z,11.38
2023-03-11T09:57:26.798Z,10.68
2023-03-11T09:59:55.279Z,11.10
2023-03-11T10:02:26.836Z,11.23
2023-03-11T10:05:09.931Z,11.50
2023-03-11T10:07:41.759Z,11.48
2023-03-11T10:10:14.428Z,11.32
2023-03-11T10:13:06.969Z,11.85
2023-03-11T10:15:56.599Z,13.10
2023-03-11T10:18:39.284Z,13.35
2023-03-11T10:21:14.563Z,14.05
2023-03-11T10:24:03.350Z,13.77
2023-03-11T10:26:42.169Z,13.80
2023-03-11T10:29:30.008Z,13.68
2023-03-11T10:32:05.075Z,13.27
2023-03-11T10:34:39.525Z,13.73
2023-03-11T10:37:21.353Z,14.07
2023-03-11T10:39:49.101Z,14.05
2023-03-11T10:42:25.098Z,14.55
2023-03-11T10:44:52.731Z,13.43
2023-03-11T10:47:23.403Z,13.43
2023-03-11T10:49:52.514Z,14.13
2023-03-11T10:52:20.220Z,13.18
2023-03-11T10:54:58.702Z,13.63
2023-03-11T10:57:29.661Z,13.77
2023-03-11T11:00:00.063Z,13.65
2023-03-11T11:02:30.252Z,13.18
2023-03-11T11:05:07.748Z,13.25
2023-03-11T11:07:37.609Z,12.77
2023-03-11T11:10:14.248Z,12.25
2023-03-11T11:12:56.559Z,13.10
2023-03-11T11:15:33.016Z,12.48
2023-03-11T11:18:02.948Z,12.50
2023-03-11T11:20:31.721Z,11.70
2023-03-11T11:23:02.242Z,12.35
2023-03-11T11:25:38.948Z,12.00
2023-03-11T11:28:16.365Z,11.73
2023-03-11T11:31:02.026Z,12.35
2023-03-11T11:36:32.556Z,12.35
2023-03-11T11:39:04.953Z,12.80
2023-03-11T11:41:36.754Z,11.88
2023-03-11T11:44:06.944Z,12.95
2023-03-11T11:46:39.810Z,12.80
2023-03-11T11:49:27.494Z,12.10
2023-03-11T11:52:14.318Z,12.00
2023-03-11T11:55:25.300Z,12.98
2023-03-11T11:57:52.823Z,12.20
2023-03-11T12:00:32.695Z,12.15
2023-03-11T12:03:36.983Z,13.02
2023-03-11T12:06:31.628Z,11.93
2023-03-11T12:09:35.377Z,12.82
2023-03-11T12:12:33.301Z,13.00
2023-03-11T12:15:03.968Z,12.60
2023-03-11T12:17:33.816Z,12.40
2023-03-11T12:20:05.819Z,11.90
2023-03-11T12:22:58.117Z,12.63
2023-03-11T12:25:32.799Z,12.50
2023-03-11T12:28:13.243Z,12.02
2023-03-11T12:30:53.405Z,11.82
2023-03-11T12:33:37.054Z,11.60
2023-03-11T12:36:06.225Z,11.70
2023-03-11T12:38:35.398Z,10.73
2023-03-11T12:41:14.661Z,11.40
2023-03-11T12:43:41.963Z,11.45
2023-03-11T12:46:14.453Z,11.45
2023-03-11T12:48:46.035Z,10.23
2023-03-11T12:51:37.657Z,9.95
2023-03-11T12:54:21.751Z,10.32
2023-03-11T12:56:56.945Z,10.85
2023-03-11T13:00:00.600Z,10.65
2023-03-11T13:02:47.556Z,10.10
2023-03-11T13:05:28.338Z,10.57
2023-03-11T13:08:01.055Z,11.02
2023-03-11T13:10:44.654Z,10.23
2023-03-11T13:13:30.488Z,9.45
2023-03-11T13:15:58.798Z,10.30
2023-03-11T13:18:28.298Z,9.23
2023-03-11T13:20:59.346Z,9.57
2023-03-11T13:23:28.335Z,9.98
2023-03-11T13:25:55.654Z,9.48
2023-03-11T13:29:05.280Z,9.82
2023-03-11T13:31:37.579Z,9.20
2023-03-11T13:34:16.125Z,9.05
2023-03-11T13:36:46.648Z,9.32
2023-03-11T13:39:37.615Z,9.80
2023-03-11T13:42:17.451Z,9.18
2023-03-11T13:44:47.417Z,9.98
2023-03-11T13:47:17.934Z,8.90
2023-03-11T13:50:03.328Z,8.63
2023-03-11T13:52:35.576Z,8.07
2023-03-11T13:55:07.634Z,9.40
2023-03-11T13:57:37.577Z,8.85
2023-03-11T14:00:17.748Z,9.23
2023-03-11T14:02:48.591Z,9.68
2023-03-11T14:05:20.229Z,9.55
2023-03-11T14:07:47.669Z,9.15
2023-03-11T14:10:24.702Z,9.60
2023-03-11T14:13:04.211Z,9.10
2023-03-11T14:15:43.914Z,9.30
2023-03-11T14:18:31.188Z,8.75
2023-03-11T14:20:59.509Z,9.45
2023-03-11T14:23:30.822Z,8.90
2023-03-11T14:26:00.427Z,9.77
2023-03-11T14:28:31.088Z,9.27
2023-03-11T14:31:00.513Z,9.27
2023-03-11T14:33:28.269Z,8.98
2023-03-11T14:36:15.705Z,8.95
2023-03-11T14:38:44.303Z,9.48
2023-03-11T14:41:15.719Z,9.45
2023-03-11T14:43:49.607Z,9.63
2023-03-11T14:46:28.725Z,9.38
2023-03-11T14:48:58.071Z,9.70
2023-03-11T14:51:33.399Z,9.85
2023-03-11T14:54:17.306Z,10.50
2023-03-11T14:56:51.248Z,10.32
2023-03-11T14:59:26.872Z,11.02
2023-03-11T15:01:59.196Z,10.48
2023-03-11T15:04:38.011Z,10.65
2023-03-11T15:07:06.071Z,11.30
2023-03-11T15:09:52.057Z,11.07
2023-03-11T15:12:34.382Z,11.25
2023-03-11T15:15:01.921Z,11.48
2023-03-11T15:17:41.342Z,10.80
2023-03-11T15:20:35.300Z,10.38
2023-03-11T15:23:07.675Z,10.95
2023-03-11T15:25:38.723Z,10.82
2023-03-11T15:28:27.544Z,10.60
2023-03-11T15:31:22.675Z,11.02
2023-03-11T15:33:53.685Z,10.90
2023-03-11T15:36:35.856Z,11.85
2023-03-11T15:39:21.555Z,11.35
2023-03-11T15:44:51.660Z,11.68
2023-03-11T15:47:21.193Z,10.98
2023-03-11T15:49:49.196Z,10.95
2023-03-11T15:52:20.134Z,10.60
2023-03-11T15:54:55.410Z,11.77
2023-03-11T15:57:26.953Z,11.80
2023-03-11T16:00:03.742Z,12.30
2023-03-11T16:02:34.421Z,12.40
2023-03-11T16:05:01.938Z,12.07
2023-03-11T16:07:38.985Z,12.15
2023-03-11T16:10:08.382Z,11.30
2023-03-11T16:12:35.779Z,11.55
2023-03-11T16:15:04.205Z,11.07
2023-03-11T16:17:46.761Z,10.82
2023-03-11T16:20:16.379Z,10.70
2023-03-11T16:22:43.822Z,10.70
2023-03-11T16:25:20.558Z,10.73
2023-03-11T16:27:50.669Z,11.23
2023-03-11T16:30:18.964Z,10.45
2023-03-11T16:32:46.369Z,10.48
2023-03-11T16:35:14.084Z,11.57
2023-03-11T16:37:43.339Z,11.57
2023-03-11T16:40:20.390Z,11.75
2023-03-11T16:42:49.527Z,11.95
2023-03-11T16:45:18.084Z,11.25
2023-03-11T16:47:45.438Z,11.82
2023-03-11T16:50:13.203Z,11.30
2023-03-11T16:52:40.529Z,11.75
2023-03-11T16:55:08.422Z,12.27
2023-03-11T16:57:37.826Z,12.38
2023-03-11T17:00:07.039Z,12.98
2023-03-11T17:02:34.381Z,13.20
2023-03-11T17:05:01.863Z,12.63
2023-03-11T17:07:29.419Z,12.55
2023-03-11T17:09:58.114Z,13.32
2023-03-11T17:12:26.969Z,13.45
2023-03-11T17:14:54.547Z,13.32
2023-03-11T17:17:23.003Z,13.77
2023-03-11T17:19:50.371Z,14.43
2023-03-11T17:22:17.873Z,14.27
2023-03-11T17:24:45.175Z,13.95
2023-03-11T17:27:12.832Z,14.55
2023-03-11T17:29:40.223Z,15.05
2023-03-11T17:32:08.032Z,14.60
2023-03-11T17:34:35.399Z,15.55
2023-03-11T17:37:02.760Z,15.80
2023-03-11T17:39:30.174Z,15.73
2023-03-11T17:41:57.629Z,17.27
2023-03-11T17:44:24.960Z,16.58
2023-03-11T17:46:52.291Z,16.27
2023-03-11T17:49:19.692Z,17.65
2023-03-11T17:51:47.150Z,17.33
2023-03-11T17:54:14.521Z,18.20
2023-03-11T17:56:41.787Z,18.02
2023-03-11T17:59:09.146Z,18.67
2023-03-11T18:01:36.689Z,18.77
2023-03-11T18:04:04.498Z,18.98
2023-03-11T18:06:31.817Z,20.70
2023-03-11T18:08:59.359Z,19.60
2023-03-11T18:11:27.881Z,20.55
2023-03-11T18:13:55.449Z,20.35
2023-03-11T18:16:28.917Z,21.00
2023-03-11T18:18:57.115Z,20.95
2023-03-11T18:21:29.113Z,20.73
2023-03-11T18:23:58.670Z,22.13
2023-03-11T18:26:28.765Z,22.70
2023-03-11T18:28:58.003Z,22.25
2023-03-11T18:31:27.101Z,22.83
2023-03-11T18:33:59.306Z,22.38
2023-03-11T18:36:27.937Z,23.42
2023-03-11T18:38:57.057Z,22.85
2023-03-11T18:41:27.246Z,22.92
2023-03-11T18:43:57.454Z,22.85
2023-03-11T18:46:28.376Z,22.52
2023-03-11T18:48:57.619Z,21.63
2023-03-11T18:51:26.101Z,22.00
2023-03-11T18:53:53.465Z,21.58
2023-03-11T18:56:21.007Z,21.85
2023-03-11T18:58:48.452Z,21.00
2023-03-11T19:01:24.916Z,21.05
2023-03-11T19:03:55.944Z,21.92
2023-03-11T19:06:25.188Z,21.70
2023-03-11T19:08:53.265Z,21.55
2023-03-11T19:11:23.000Z,23.40
2023-03-11T19:13:51.040Z,23.30
2023-03-11T19:16:21.674Z,22.92
2023-03-11T19:18:50.202Z,21.42
2023-03-11T19:21:18.004Z,21.73
2023-03-11T19:23:45.804Z,19.73
2023-03-11T19:26:13.666Z,19.63
2023-03-11T19:28:42.004Z,19.95
2023-03-11T19:31:09.370Z,19.08
2023-03-11T19:33:36.706Z,17.77
2023-03-11T19:36:06.091Z,18.40
2023-03-11T19:38:34.151Z,17.90
2023-03-11T19:41:12.254Z,18.10
2023-03-11T19:43:40.164Z,17.88
2023-03-11T19:46:10.297Z,19.17
2023-03-11T19:48:37.695Z,21.13
2023-03-11T19:51:08.120Z,23.60
2023-03-11T19:53:36.603Z,25.73
2023-03-11T19:56:04.873Z,26.38
2023-03-11T19:58:32.315Z,26.25
2023-03-11T20:00:59.865Z,28.30
2023-03-11T20:03:27.770Z,29.50
2023-03-11T20:05:57.929Z,31.23
2023-03-11T20:08:25.988Z,32.22
2023-03-11T20:10:53.841Z,33.25
2023-03-11T20:13:22.335Z,32.85
2023-03-11T20:15:50.426Z,32.80
2023-03-11T20:18:18.319Z,31.65
2023-03-11T20:20:47.080Z,31.60
2023-03-11T20:23:14.616Z,31.98
2023-03-11T20:25:42.540Z,31.55
2023-03-11T20:28:10.685Z,31.05
2023-03-11T20:30:39.482Z,31.38
2023-03-11T20:33:07.889Z,30.65
2023-03-11T20:35:35.391Z,30.48
2023-03-11T20:38:03.229Z,28.95
2023-03-11T20:40:31.029Z,27.98
2023-03-11T20:42:58.417Z,28.27
2023-03-11T20:45:25.863Z,26.75
2023-03-11T20:47:54.040Z,27.65
2023-03-11T20:50:23.040Z,25.73
2023-03-11T20:52:50.976Z,24.02
2023-03-11T20:55:18.494Z,24.45
2023-03-11T20:57:46.692Z,23.30
2023-03-11T21:00:14.770Z,22.95
2023-03-11T21:02:43.354Z,22.75
2023-03-11T21:05:11.903Z,21.10
2023-03-11T21:07:40.056Z,20.67
2023-03-11T21:10:12.084Z,19.67
2023-03-11T21:12:39.728Z,18.80
2023-03-11T21:15:09.184Z,17.35
2023-03-11T21:17:37.896Z,17.63
2023-03-11T21:20:06.388Z,16.35
2023-03-11T21:22:33.998Z,15.57
2023-03-11T21:25:01.545Z,14.90
2023-03-11T21:27:29.011Z,14.23
2023-03-11T21:29:56.873Z,13.40
2023-03-11T21:32:25.903Z,12.63
2023-03-11T21:34:57.805Z,11.02
2023-03-11T21:37:26.256Z,11.07
2023-03-11T21:39:53.951Z,11.23
2023-03-11T21:42:21.946Z,11.57
2023-03-11T21:44:51.405Z,10.45
2023-03-11T21:47:19.883Z,9.50
2023-03-11T21:49:47.425Z,9.88
2023-03-11T21:52:14.908Z,9.30
2023-03-11T21:54:42.445Z,9.65
2023-03-11T21:57:11.331Z,8.40
2023-03-11T21:59:38.733Z,8.50
2023-03-11T22:02:06.379Z,7.75
2023-03-11T22:04:33.780Z,7.78
2023-03-11T22:07:01.160Z,7.93
2023-03-11T22:09:28.579Z,7.75
2023-03-11T22:11:56.377Z,8.40
2023-03-11T22:14:24.712Z,8.27
2023-03-11T22:16:52.276Z,7.55
2023-03-11T22:19:19.839Z,7.45
2023-03-11T22:21:52.284Z,7.68
2023-03-11T22:24:19.779Z,8.98
2023-03-11T22:26:47.082Z,7.28
2023-03-11T22:29:15.454Z,7.35
2023-03-11T22:31:42.823Z,7.65
2023-03-11T22:34:10.290Z,7.68
2023-03-11T22:36:37.692Z,7.40
2023-03-11T22:39:05.058Z,7.53
2023-03-11T22:41:32.837Z,7.72
2023-03-11T22:44:00.451Z,7.90
2023-03-11T22:46:28.156Z,6.90
2023-03-11T22:48:55.727Z,6.70
2023-03-11T22:51:23.339Z,6.68
2023-03-11T22:53:50.864Z,6.20
2023-03-11T22:56:19.750Z,6.05
2023-03-11T22:58:47.306Z,5.90
2023-03-11T23:01:16.497Z,5.32
2023-03-11T23:03:44.243Z,5.85
2023-03-11T23:06:15.027Z,5.03
2023-03-11T23:08:42.760Z,5.25
2023-03-11T23:11:12.441Z,5.20
2023-03-11T23:13:41.863Z,4.80
2023-03-11T23:16:16.563Z,5.03
2023-03-11T23:18:46.469Z,4.53
2023-03-11T23:21:22.825Z,4.53
2023-03-11T23:23:51.848Z,4.55
2023-03-11T23:26:20.306Z,4.22
2023-03-11T23:28:51.182Z,4.22
2023-03-11T23:31:20.603Z,3.92
2023-03-11T23:33:48.165Z,4.45
2023-03-11T23:36:18.368Z,4.35
2023-03-11T23:38:47.309Z,4.28
2023-03-11T23:41:18.063Z,3.55
2023-03-11T23:43:49.968Z,4.10
2023-03-11T23:46:17.555Z,3.30
2023-03-11T23:48:45.000Z,3.70
2023-03-11T23:51:12.761Z,3.58
2023-03-11T23:53:40.465Z,3.67
2023-03-11T23:56:17.155Z,4.05
2023-03-11T23:58:45.844Z,3.05
